sensor_id;sensor_type;location;lat;lon;timestamp;pressure;altitude;pressure_sealevel;temperature;humidity
58243;BME280;50118;53.232;8.252;2023-04-03T00:01:04;103156.56;;;-1.89;100.00
58243;BME280;50118;53.232;8.252;2023-04-03T00:03:30;103162.69;;;-1.93;100.00
58243;BME280;50118;53.232;8.252;2023-04-03T00:05:56;103163.56;;;-1.94;100.00
58243;BME280;50118;53.232;8.252;2023-04-03T00:08:21;103166.16;;;-1.93;100.00
58243;BME280;50118;53.232;8.252;2023-04-03T00:10:47;103175.75;;;-1.96;100.00
58243;BME280;50118;53.232;8.252;2023-04-03T00:13:13;103172.28;;;-1.94;100.00
58243;BME280;50118;53.232;8.252;2023-04-03T00:15:39;103169.69;;;-1.97;100.00
58243;BME280;50118;53.232;8.252;2023-04-03T00:18:05;103176.66;;;-2.05;100.00
58243;BME280;50118;53.232;8.252;2023-04-03T00:20:31;103174.94;;;-2.09;100.00
58243;BME280;50118;53.232;8.252;2023-04-03T00:22:57;103175.81;;;-2.16;100.00
58243;BME280;50118;53.232;8.252;2023-04-03T00:25:22;103182.78;;;-2.18;100.00
58243;BME280;50118;53.232;8.252;2023-04-03T00:27:48;103183.69;;;-2.24;100.00
58243;BME280;50118;53.232;8.252;2023-04-03T00:30:16;103178.44;;;-2.30;100.00
58243;BME280;50118;53.232;8.252;2023-04-03T00:32:42;103177.59;;;-2.38;100.00
58243;BME280;50118;53.232;8.252;2023-04-03T00:35:07;103179.34;;;-2.39;100.00
58243;BME280;50118;53.232;8.252;2023-04-03T00:37:33;103175.00;;;-2.40;100.00
58243;BME280;50118;53.232;8.252;2023-04-03T00:39:58;103169.78;;;-2.46;100.00
58243;BME280;50118;53.232;8.252;2023-04-03T00:42:25;103181.97;;;-2.45;100.00
58243;BME280;50118;53.232;8.252;2023-04-03T00:47:22;103171.56;;;-2.60;100.00
58243;BME280;50118;53.232;8.252;2023-04-03T00:49:49;103170.66;;;-2.64;100.00
58243;BME280;50118;53.232;8.252;2023-04-03T00:52:17;103172.38;;;-2.71;100.00
58243;BME280;50118;53.232;8.252;2023-04-03T00:54:46;103169.81;;;-2.74;100.00
58243;BME280;50118;53.232;8.252;2023-04-03T00:57:13;103170.66;;;-2.78;100.00
58243;BME280;50118;53.232;8.252;2023-04-03T00:59:43;103162.81;;;-2.81;100.00
58243;BME280;50118;53.232;8.252;2023-04-03T01:02:09;103174.16;;;-2.82;100.00
58243;BME280;50118;53.232;8.252;2023-04-03T01:04:40;103180.22;;;-2.80;100.00
58243;BME280;50118;53.232;8.252;2023-04-03T01:07:10;103180.22;;;-2.82;100.00
58243;BME280;50118;53.232;8.252;2023-04-03T01:09:36;103186.31;;;-2.83;100.00
58243;BME280;50118;53.232;8.252;2023-04-03T01:14:57;103187.19;;;-2.85;100.00
58243;BME280;50118;53.232;8.252;2023-04-03T01:23:00;103194.13;;;-2.96;100.00
58243;BME280;50118;53.232;8.252;2023-04-03T01:25:28;103185.44;;;-2.98;100.00
58243;BME280;50118;53.232;8.252;2023-04-03T01:27:54;103188.03;;;-2.98;100.00
58243;BME280;50118;53.232;8.252;2023-04-03T01:30:21;103189.78;;;-3.01;100.00
58243;BME280;50118;53.232;8.252;2023-04-03T01:32:48;103191.50;;;-3.04;100.00
58243;BME280;50118;53.232;8.252;2023-04-03T01:35:14;103188.03;;;-3.06;100.00
58243;BME280;50118;53.232;8.252;2023-04-03T01:37:39;103190.63;;;-3.09;100.00
58243;BME280;50118;53.232;8.252;2023-04-03T01:40:05;103191.50;;;-3.06;100.00
58243;BME280;50118;53.232;8.252;2023-04-03T01:42:32;103196.75;;;-2.99;100.00
58243;BME280;50118;53.232;8.252;2023-04-03T01:44:57;103196.72;;;-3.04;100.00
58243;BME280;50118;53.232;8.252;2023-04-03T01:47:23;103199.31;;;-3.12;100.00
58243;BME280;50118;53.232;8.252;2023-04-03T01:49:48;103199.31;;;-3.15;100.00
58243;BME280;50118;53.232;8.252;2023-04-03T01:52:14;103202.78;;;-3.16;100.00
58243;BME280;50118;53.232;8.252;2023-04-03T01:54:39;103205.38;;;-3.21;100.00
58243;BME280;50118;53.232;8.252;2023-04-03T01:57:05;103204.50;;;-3.24;100.00
58243;BME280;50118;53.232;8.252;2023-04-03T01:59:30;103212.28;;;-3.30;100.00
58243;BME280;50118;53.232;8.252;2023-04-03T02:01:56;103213.19;;;-3.31;100.00
58243;BME280;50118;53.232;8.252;2023-04-03T02:04:21;103197.50;;;-3.39;100.00
58243;BME280;50118;53.232;8.252;2023-04-03T02:06:47;103218.38;;;-3.36;100.00
58243;BME280;50118;53.232;8.252;2023-04-03T02:09:12;103212.28;;;-3.35;100.00
58243;BME280;50118;53.232;8.252;2023-04-03T02:11:38;103215.75;;;-3.36;100.00
58243;BME280;50118;53.232;8.252;2023-04-03T02:14:03;103217.50;;;-3.38;100.00
58243;BME280;50118;53.232;8.252;2023-04-03T02:16:29;103207.06;;;-3.36;100.00
58243;BME280;50118;53.232;8.252;2023-04-03T02:18:55;103211.41;;;-3.42;100.00
58243;BME280;50118;53.232;8.252;2023-04-03T02:21:21;103212.25;;;-3.43;100.00
58243;BME280;50118;53.232;8.252;2023-04-03T02:23:46;103220.06;;;-3.43;100.00
58243;BME280;50118;53.232;8.252;2023-04-03T02:26:13;103215.75;;;-3.45;100.00
58243;BME280;50118;53.232;8.252;2023-04-03T02:28:39;103218.31;;;-3.50;100.00
58243;BME280;50118;53.232;8.252;2023-04-03T02:31:07;103228.75;;;-3.50;100.00
58243;BME280;50118;53.232;8.252;2023-04-03T02:33:33;103222.69;;;-3.47;100.00
58243;BME280;50118;53.232;8.252;2023-04-03T02:35:59;103227.00;;;-3.48;100.00
58243;BME280;50118;53.232;8.252;2023-04-03T02:38:25;103228.75;;;-3.50;100.00
58243;BME280;50118;53.232;8.252;2023-04-03T02:40:51;103223.53;;;-3.50;100.00
58243;BME280;50118;53.232;8.252;2023-04-03T02:43:17;103227.88;;;-3.52;100.00
58243;BME280;50118;53.232;8.252;2023-04-03T02:45:43;103227.88;;;-3.50;100.00
58243;BME280;50118;53.232;8.252;2023-04-03T02:48:08;103230.47;;;-3.55;100.00
58243;BME280;50118;53.232;8.252;2023-04-03T02:50:34;103227.88;;;-3.53;100.00
58243;BME280;50118;53.232;8.252;2023-04-03T02:52:59;103235.72;;;-3.49;100.00
58243;BME280;50118;53.232;8.252;2023-04-03T02:55:24;103225.25;;;-3.55;100.00
58243;BME280;50118;53.232;8.252;2023-04-03T02:57:50;103226.97;;;-3.60;100.00
58243;BME280;50118;53.232;8.252;2023-04-03T03:00:15;103239.13;;;-3.58;100.00
58243;BME280;50118;53.232;8.252;2023-04-03T03:02:41;103235.63;;;-3.64;100.00
58243;BME280;50118;53.232;8.252;2023-04-03T03:05:07;103241.69;;;-3.65;100.00
58243;BME280;50118;53.232;8.252;2023-04-03T03:07:33;103232.13;;;-3.65;100.00
58243;BME280;50118;53.232;8.252;2023-04-03T03:09:58;103231.28;;;-3.64;100.00
58243;BME280;50118;53.232;8.252;2023-04-03T03:12:23;103232.16;;;-3.69;100.00
58243;BME280;50118;53.232;8.252;2023-04-03T03:14:50;103244.25;;;-3.71;100.00
58243;BME280;50118;53.232;8.252;2023-04-03T03:17:16;103242.50;;;-3.76;100.00
58243;BME280;50118;53.232;8.252;2023-04-03T03:19:42;103236.41;;;-3.82;100.00
58243;BME280;50118;53.232;8.252;2023-04-03T03:22:07;103237.25;;;-3.85;100.00
58243;BME280;50118;53.232;8.252;2023-04-03T03:24:33;103241.56;;;-3.88;100.00
58243;BME280;50118;53.232;8.252;2023-04-03T03:26:58;103239.84;;;-3.88;100.00
58243;BME280;50118;53.232;8.252;2023-04-03T03:29:23;103233.75;;;-3.87;100.00
58243;BME280;50118;53.232;8.252;2023-04-03T03:31:49;103237.25;;;-3.86;100.00
58243;BME280;50118;53.232;8.252;2023-04-03T03:34:15;103235.50;;;-3.89;100.00
58243;BME280;50118;53.232;8.252;2023-04-03T03:36:40;103239.88;;;-3.86;100.00
58243;BME280;50118;53.232;8.252;2023-04-03T03:39:06;103233.72;;;-3.90;100.00
58243;BME280;50118;53.232;8.252;2023-04-03T03:41:31;103231.06;;;-4.01;100.00
58243;BME280;50118;53.232;8.252;2023-04-03T03:43:58;103238.03;;;-4.01;100.00
58243;BME280;50118;53.232;8.252;2023-04-03T03:46:23;103231.06;;;-4.04;100.00
58243;BME280;50118;53.232;8.252;2023-04-03T03:48:49;103237.13;;;-4.05;100.00
58243;BME280;50118;53.232;8.252;2023-04-03T03:51:14;103245.81;;;-4.04;100.00
58243;BME280;50118;53.232;8.252;2023-04-03T03:53:40;103237.13;;;-4.06;100.00
58243;BME280;50118;53.232;8.252;2023-04-03T03:56:06;103234.47;;;-4.11;100.00
58243;BME280;50118;53.232;8.252;2023-04-03T03:58:31;103234.47;;;-4.11;100.00
58243;BME280;50118;53.232;8.252;2023-04-03T04:01:00;103237.97;;;-4.14;100.00
58243;BME280;50118;53.232;8.252;2023-04-03T04:03:26;103240.56;;;-4.14;100.00
58243;BME280;50118;53.232;8.252;2023-04-03T04:05:51;103246.59;;;-4.16;100.00
58243;BME280;50118;53.232;8.252;2023-04-03T04:08:17;103257.03;;;-4.15;100.00
58243;BME280;50118;53.232;8.252;2023-04-03T04:10:42;103256.19;;;-4.14;100.00
58243;BME280;50118;53.232;8.252;2023-04-03T04:13:07;103250.91;;;-4.20;100.00
58243;BME280;50118;53.232;8.252;2023-04-03T04:15:33;103249.16;;;-4.21;100.00
58243;BME280;50118;53.232;8.252;2023-04-03T04:17:59;103254.34;;;-4.25;100.00
58243;BME280;50118;53.232;8.252;2023-04-03T04:20:24;103248.25;;;-4.26;100.00
58243;BME280;50118;53.232;8.252;2023-04-03T04:22:49;103255.19;;;-4.28;100.00
58243;BME280;50118;53.232;8.252;2023-04-03T04:25:15;103259.53;;;-4.27;100.00
58243;BME280;50118;53.232;8.252;2023-04-03T04:27:40;103264.69;;;-4.33;100.00
58243;BME280;50118;53.232;8.252;2023-04-03T04:30:06;103258.63;;;-4.34;100.00
58243;BME280;50118;53.232;8.252;2023-04-03T04:32:32;103258.59;;;-4.35;100.00
58243;BME280;50118;53.232;8.252;2023-04-03T04:34:57;103266.31;;;-4.44;100.00
58243;BME280;50118;53.232;8.252;2023-04-03T04:37:23;103268.06;;;-4.43;100.00
58243;BME280;50118;53.232;8.252;2023-04-03T04:39:48;103265.47;;;-4.43;100.00
58243;BME280;50118;53.232;8.252;2023-04-03T04:42:14;103266.34;;;-4.41;100.00
58243;BME280;50118;53.232;8.252;2023-04-03T04:44:40;103271.56;;;-4.41;100.00
58243;BME280;50118;53.232;8.252;2023-04-03T04:47:05;103267.22;;;-4.42;100.00
58243;BME280;50118;53.232;8.252;2023-04-03T04:49:30;103275.84;;;-4.48;100.00
58243;BME280;50118;53.232;8.252;2023-04-03T04:51:56;103287.13;;;-4.44;100.00
58243;BME280;50118;53.232;8.252;2023-04-03T04:54:21;103290.63;;;-4.45;100.00
58243;BME280;50118;53.232;8.252;2023-04-03T04:56:47;103282.78;;;-4.47;100.00
58243;BME280;50118;53.232;8.252;2023-04-03T04:59:12;103288.88;;;-4.45;100.00
58243;BME280;50118;53.232;8.252;2023-04-03T05:01:37;103280.22;;;-4.45;100.00
58243;BME280;50118;53.232;8.252;2023-04-03T05:04:03;103289.75;;;-4.43;100.00
58243;BME280;50118;53.232;8.252;2023-04-03T05:06:28;103288.03;;;-4.42;100.00
58243;BME280;50118;53.232;8.252;2023-04-03T05:08:55;103290.66;;;-4.42;100.00
58243;BME280;50118;53.232;8.252;2023-04-03T05:11:21;103288.91;;;-4.40;100.00
58243;BME280;50118;53.232;8.252;2023-04-03T05:13:46;103295.03;;;-4.35;100.00
58243;BME280;50118;53.232;8.252;2023-04-03T05:16:11;103287.22;;;-4.35;100.00
58243;BME280;50118;53.232;8.252;2023-04-03T05:18:37;103292.44;;;-4.35;100.00
58243;BME280;50118;53.232;8.252;2023-04-03T05:21:03;103289.84;;;-4.34;100.00
58243;BME280;50118;53.232;8.252;2023-04-03T05:23:28;103293.38;;;-4.27;100.00
58243;BME280;50118;53.232;8.252;2023-04-03T05:25:53;103290.81;;;-4.21;100.00
58243;BME280;50118;53.232;8.252;2023-04-03T05:28:19;103291.72;;;-4.19;100.00
58243;BME280;50118;53.232;8.252;2023-04-03T05:30:44;103287.47;;;-4.04;100.00
58243;BME280;50118;53.232;8.252;2023-04-03T05:33:09;103290.25;;;-3.81;100.00
58243;BME280;50118;53.232;8.252;2023-04-03T05:35:37;103299.09;;;-3.50;100.00
58243;BME280;50118;53.232;8.252;2023-04-03T05:38:05;103293.09;;;-3.33;100.00
58243;BME280;50118;53.232;8.252;2023-04-03T05:40:30;103292.28;;;-3.22;100.00
58243;BME280;50118;53.232;8.252;2023-04-03T05:42:56;103301.84;;;-3.19;100.00
58243;BME280;50118;53.232;8.252;2023-04-03T05:45:21;103308.91;;;-2.89;100.00
58243;BME280;50118;53.232;8.252;2023-04-03T05:47:47;103303.72;;;-2.84;100.00
58243;BME280;50118;53.232;8.252;2023-04-03T05:50:12;103324.56;;;-2.87;100.00
58243;BME280;50118;53.232;8.252;2023-04-03T05:52:40;103318.53;;;-2.63;100.00
58243;BME280;50118;53.232;8.252;2023-04-03T05:55:08;103317.72;;;-2.45;100.00
58243;BME280;50118;53.232;8.252;2023-04-03T05:57:33;103330.75;;;-2.45;100.00
58243;BME280;50118;53.232;8.252;2023-04-03T05:59:58;103329.91;;;-2.07;100.00
58243;BME280;50118;53.232;8.252;2023-04-03T06:02:24;103329.88;;;-1.76;100.00
58243;BME280;50118;53.232;8.252;2023-04-03T06:04:51;103332.38;;;-1.33;100.00
58243;BME280;50118;53.232;8.252;2023-04-03T06:07:22;103325.16;;;-0.76;100.00
58243;BME280;50118;53.232;8.252;2023-04-03T06:09:49;103327.50;;;-0.32;100.00
58243;BME280;50118;53.232;8.252;2023-04-03T06:12:16;103327.34;;;-0.11;100.00
58243;BME280;50118;53.232;8.252;2023-04-03T06:14:41;103330.50;;;0.24;100.00
58243;BME280;50118;53.232;8.252;2023-04-03T06:17:07;103328.53;;;0.46;100.00
58243;BME280;50118;53.232;8.252;2023-04-03T06:19:34;103340.38;;;0.00;100.00
58243;BME280;50118;53.232;8.252;2023-04-03T06:22:00;103345.22;;;0.40;100.00
58243;BME280;50118;53.232;8.252;2023-04-03T06:24:26;103342.09;;;0.85;100.00
58243;BME280;50118;53.232;8.252;2023-04-03T06:26:51;103346.84;;;1.84;100.00
58243;BME280;50118;53.232;8.252;2023-04-03T06:29:18;103347.50;;;2.92;97.81
58243;BME280;50118;53.232;8.252;2023-04-03T06:31:45;103344.38;;;3.54;87.66
58243;BME280;50118;53.232;8.252;2023-04-03T06:34:10;103340.00;;;3.90;85.24
58243;BME280;50118;53.232;8.252;2023-04-03T06:36:38;103334.81;;;4.55;78.08
58243;BME280;50118;53.232;8.252;2023-04-03T06:39:04;103347.44;;;5.06;77.53
58243;BME280;50118;53.232;8.252;2023-04-03T06:41:29;103347.78;;;4.94;76.62
58243;BME280;50118;53.232;8.252;2023-04-03T06:43:55;103341.88;;;4.21;79.61
58243;BME280;50118;53.232;8.252;2023-04-03T06:46:24;103351.97;;;4.38;81.07
58243;BME280;50118;53.232;8.252;2023-04-03T06:48:50;103357.13;;;4.08;80.53
58243;BME280;50118;53.232;8.252;2023-04-03T06:51:22;103358.31;;;4.31;79.66
58243;BME280;50118;53.232;8.252;2023-04-03T06:53:49;103360.00;;;4.98;78.08
58243;BME280;50118;53.232;8.252;2023-04-03T06:56:16;103358.44;;;6.32;66.52
58243;BME280;50118;53.232;8.252;2023-04-03T06:58:42;103352.06;;;6.86;66.32
58243;BME280;50118;53.232;8.252;2023-04-03T07:01:09;103355.78;;;7.50;64.71
58243;BME280;50118;53.232;8.252;2023-04-03T07:03:35;103359.72;;;8.06;60.29
58243;BME280;50118;53.232;8.252;2023-04-03T07:06:02;103365.53;;;7.94;59.34
58243;BME280;50118;53.232;8.252;2023-04-03T07:08:28;103373.09;;;6.15;65.32
58243;BME280;50118;53.232;8.252;2023-04-03T07:10:54;103366.50;;;7.91;61.83
58243;BME280;50118;53.232;8.252;2023-04-03T07:13:20;103368.22;;;6.79;63.27
58243;BME280;50118;53.232;8.252;2023-04-03T07:15:45;103369.75;;;8.40;61.17
58243;BME280;50118;53.232;8.252;2023-04-03T07:18:11;103374.13;;;7.10;63.73
58243;BME280;50118;53.232;8.252;2023-04-03T07:20:36;103372.94;;;7.63;64.64
58243;BME280;50118;53.232;8.252;2023-04-03T07:23:02;103367.59;;;8.50;60.17
58243;BME280;50118;53.232;8.252;2023-04-03T07:25:28;103372.09;;;7.63;61.99
58243;BME280;50118;53.232;8.252;2023-04-03T07:27:53;103376.03;;;6.58;64.71
58243;BME280;50118;53.232;8.252;2023-04-03T07:30:23;103371.47;;;7.78;63.35
58243;BME280;50118;53.232;8.252;2023-04-03T07:32:48;103376.78;;;7.56;62.76
58243;BME280;50118;53.232;8.252;2023-04-03T07:35:14;103384.47;;;7.62;61.30
58243;BME280;50118;53.232;8.252;2023-04-03T07:37:39;103385.47;;;8.04;58.68
58243;BME280;50118;53.232;8.252;2023-04-03T07:40:06;103389.41;;;8.16;59.92
58243;BME280;50118;53.232;8.252;2023-04-03T07:42:31;103389.44;;;8.96;58.16
58243;BME280;50118;53.232;8.252;2023-04-03T07:44:57;103372.84;;;8.91;56.37
58243;BME280;50118;53.232;8.252;2023-04-03T07:47:22;103380.22;;;6.89;65.28
58243;BME280;50118;53.232;8.252;2023-04-03T07:49:48;103385.53;;;7.80;57.41
58243;BME280;50118;53.232;8.252;2023-04-03T07:52:14;103387.53;;;7.29;59.87
58243;BME280;50118;53.232;8.252;2023-04-03T07:54:41;103387.56;;;6.05;65.08
58243;BME280;50118;53.232;8.252;2023-04-03T07:57:06;103388.00;;;6.94;63.96
58243;BME280;50118;53.232;8.252;2023-04-03T07:59:31;103388.69;;;6.50;64.19
58243;BME280;50118;53.232;8.252;2023-04-03T08:01:57;103391.56;;;6.44;64.13
58243;BME280;50118;53.232;8.252;2023-04-03T08:04:23;103385.66;;;7.77;58.52
58243;BME280;50118;53.232;8.252;2023-04-03T08:06:49;103378.34;;;8.04;56.69
58243;BME280;50118;53.232;8.252;2023-04-03T08:09:15;103379.97;;;7.86;57.60
58243;BME280;50118;53.232;8.252;2023-04-03T08:11:41;103370.56;;;6.63;60.30
58243;BME280;50118;53.232;8.252;2023-04-03T08:14:07;103383.97;;;7.07;62.71
58243;BME280;50118;53.232;8.252;2023-04-03T08:16:32;103379.59;;;7.96;56.97
58243;BME280;50118;53.232;8.252;2023-04-03T08:18:58;103371.59;;;8.38;54.82
58243;BME280;50118;53.232;8.252;2023-04-03T08:21:23;103379.84;;;7.67;57.42
58243;BME280;50118;53.232;8.252;2023-04-03T08:23:49;103384.31;;;6.98;60.68
58243;BME280;50118;53.232;8.252;2023-04-03T08:26:19;103380.53;;;5.76;65.55
58243;BME280;50118;53.232;8.252;2023-04-03T08:28:45;103383.44;;;5.95;66.18
58243;BME280;50118;53.232;8.252;2023-04-03T08:31:13;103376.69;;;5.58;70.66
58243;BME280;50118;53.232;8.252;2023-04-03T08:33:40;103378.94;;;6.76;61.23
58243;BME280;50118;53.232;8.252;2023-04-03T08:36:07;103377.22;;;5.69;64.30
58243;BME280;50118;53.232;8.252;2023-04-03T08:38:40;103386.06;;;5.96;59.28
58243;BME280;50118;53.232;8.252;2023-04-03T08:41:26;103368.16;;;7.51;57.39
58243;BME280;50118;53.232;8.252;2023-04-03T08:47:45;103368.13;;;8.58;54.58
58243;BME280;50118;53.232;8.252;2023-04-03T08:50:15;103374.53;;;7.90;55.77
58243;BME280;50118;53.232;8.252;2023-04-03T08:52:45;103377.63;;;8.01;55.67
58243;BME280;50118;53.232;8.252;2023-04-03T08:55:29;103367.28;;;8.15;51.48
58243;BME280;50118;53.232;8.252;2023-04-03T08:58:14;103368.25;;;7.70;54.34
58243;BME280;50118;53.232;8.252;2023-04-03T09:00:47;103365.69;;;8.11;51.49
58243;BME280;50118;53.232;8.252;2023-04-03T09:03:18;103368.81;;;9.40;51.90
58243;BME280;50118;53.232;8.252;2023-04-03T09:05:54;103367.38;;;10.05;48.49
58243;BME280;50118;53.232;8.252;2023-04-03T09:08:27;103364.41;;;10.29;47.80
58243;BME280;50118;53.232;8.252;2023-04-03T09:11:25;103364.09;;;10.18;47.16
58243;BME280;50118;53.232;8.252;2023-04-03T09:22:21;103354.84;;;10.60;42.16
58243;BME280;50118;53.232;8.252;2023-04-03T09:25:00;103358.75;;;10.18;42.27
58243;BME280;50118;53.232;8.252;2023-04-03T09:27:26;103341.13;;;8.06;48.05
58243;BME280;50118;53.232;8.252;2023-04-03T09:29:54;103344.03;;;8.82;44.85
58243;BME280;50118;53.232;8.252;2023-04-03T09:32:35;103350.78;;;8.50;47.07
58243;BME280;50118;53.232;8.252;2023-04-03T09:35:19;103349.88;;;8.70;44.42
58243;BME280;50118;53.232;8.252;2023-04-03T09:37:47;103344.63;;;9.63;43.33
58243;BME280;50118;53.232;8.252;2023-04-03T09:43:01;103332.31;;;8.47;47.42
58243;BME280;50118;53.232;8.252;2023-04-03T09:45:33;103341.03;;;9.82;38.63
58243;BME280;50118;53.232;8.252;2023-04-03T09:50:52;103344.91;;;9.02;41.13
58243;BME280;50118;53.232;8.252;2023-04-03T09:55:55;103332.31;;;10.32;39.20
58243;BME280;50118;53.232;8.252;2023-04-03T09:58:40;103331.06;;;7.50;42.46
58243;BME280;50118;53.232;8.252;2023-04-03T10:01:06;103336.66;;;7.64;43.28
58243;BME280;50118;53.232;8.252;2023-04-03T10:03:45;103331.69;;;7.34;44.25
58243;BME280;50118;53.232;8.252;2023-04-03T10:06:23;103323.53;;;7.61;44.08
58243;BME280;50118;53.232;8.252;2023-04-03T10:09:15;103334.75;;;8.10;44.39
58243;BME280;50118;53.232;8.252;2023-04-03T10:12:02;103335.38;;;7.06;46.52
58243;BME280;50118;53.232;8.252;2023-04-03T10:14:39;103333.63;;;8.16;42.94
58243;BME280;50118;53.232;8.252;2023-04-03T10:19:53;103329.97;;;9.91;40.56
58243;BME280;50118;53.232;8.252;2023-04-03T10:27:51;103320.13;;;7.79;36.75
58243;BME280;50118;53.232;8.252;2023-04-03T10:30:27;103313.28;;;9.14;36.19
58243;BME280;50118;53.232;8.252;2023-04-03T10:33:27;103308.91;;;7.93;37.67
58243;BME280;50118;53.232;8.252;2023-04-03T10:36:36;103313.78;;;8.04;37.24
58243;BME280;50118;53.232;8.252;2023-04-03T10:42:05;103312.13;;;7.59;37.59
58243;BME280;50118;53.232;8.252;2023-04-03T10:44:53;103313.47;;;7.47;38.68
58243;BME280;50118;53.232;8.252;2023-04-03T10:47:24;103311.25;;;7.80;40.24
58243;BME280;50118;53.232;8.252;2023-04-03T10:50:06;103305.94;;;8.21;38.79
58243;BME280;50118;53.232;8.252;2023-04-03T10:52:43;103310.19;;;8.46;37.45
58243;BME280;50118;53.232;8.252;2023-04-03T10:57:58;103302.72;;;9.13;36.03
58243;BME280;50118;53.232;8.252;2023-04-03T11:00:48;103303.91;;;9.06;37.41
58243;BME280;50118;53.232;8.252;2023-04-03T11:05:53;103290.91;;;8.41;37.10
58243;BME280;50118;53.232;8.252;2023-04-03T11:08:32;103289.34;;;9.51;36.11
58243;BME280;50118;53.232;8.252;2023-04-03T11:11:05;103291.03;;;9.88;33.82
58243;BME280;50118;53.232;8.252;2023-04-03T11:13:41;103287.72;;;9.48;36.57
58243;BME280;50118;53.232;8.252;2023-04-03T11:16:08;103279.59;;;10.04;33.94
58243;BME280;50118;53.232;8.252;2023-04-03T11:18:42;103275.22;;;10.03;33.75
58243;BME280;50118;53.232;8.252;2023-04-03T11:21:19;103276.97;;;9.50;33.32
58243;BME280;50118;53.232;8.252;2023-04-03T11:23:47;103262.50;;;8.64;34.94
58243;BME280;50118;53.232;8.252;2023-04-03T11:26:16;103254.38;;;8.67;37.04
58243;BME280;50118;53.232;8.252;2023-04-03T11:28:42;103260.41;;;8.10;36.73
58243;BME280;50118;53.232;8.252;2023-04-03T11:37:00;103243.13;;;9.71;34.37
58243;BME280;50118;53.232;8.252;2023-04-03T11:39:27;103236.69;;;9.04;38.35
58243;BME280;50118;53.232;8.252;2023-04-03T11:41:54;103245.50;;;9.23;35.34
58243;BME280;50118;53.232;8.252;2023-04-03T11:46:57;103238.00;;;7.97;37.90
58243;BME280;50118;53.232;8.252;2023-04-03T12:16:23;103202.78;;;9.61;37.28
58243;BME280;50118;53.232;8.252;2023-04-03T12:21:23;103194.34;;;9.70;35.09
58243;BME280;50118;53.232;8.252;2023-04-03T12:24:21;103193.84;;;10.31;34.65
58243;BME280;50118;53.232;8.252;2023-04-03T12:40:42;103179.28;;;8.23;38.93
58243;BME280;50118;53.232;8.252;2023-04-03T12:46:16;103176.94;;;8.74;37.98
58243;BME280;50118;53.232;8.252;2023-04-03T12:51:42;103171.69;;;8.16;43.05
58243;BME280;50118;53.232;8.252;2023-04-03T12:54:22;103159.84;;;8.42;41.58
58243;BME280;50118;53.232;8.252;2023-04-03T12:56:51;103153.81;;;8.19;38.64
58243;BME280;50118;53.232;8.252;2023-04-03T12:59:25;103162.75;;;8.75;38.49
58243;BME280;50118;53.232;8.252;2023-04-03T13:02:01;103152.16;;;7.77;39.18
58243;BME280;50118;53.232;8.252;2023-04-03T13:04:28;103151.50;;;8.31;40.82
58243;BME280;50118;53.232;8.252;2023-04-03T13:06:54;103160.88;;;9.31;37.95
58243;BME280;50118;53.232;8.252;2023-04-03T13:09:25;103143.13;;;7.81;37.13
58243;BME280;50118;53.232;8.252;2023-04-03T13:12:14;103156.88;;;7.71;39.84
58243;BME280;50118;53.232;8.252;2023-04-03T13:14:40;103149.22;;;8.04;40.22
58243;BME280;50118;53.232;8.252;2023-04-03T13:17:16;103151.50;;;8.51;40.54
58243;BME280;50118;53.232;8.252;2023-04-03T13:19:43;103144.22;;;8.74;39.09
58243;BME280;50118;53.232;8.252;2023-04-03T13:22:27;103140.94;;;8.86;37.37
58243;BME280;50118;53.232;8.252;2023-04-03T13:24:55;103134.03;;;8.46;38.52
58243;BME280;50118;53.232;8.252;2023-04-03T13:27:22;103130.38;;;9.21;37.37
58243;BME280;50118;53.232;8.252;2023-04-03T13:29:53;103136.31;;;9.44;37.38
58243;BME280;50118;53.232;8.252;2023-04-03T13:32:22;103129.34;;;8.70;39.40
58243;BME280;50118;53.232;8.252;2023-04-03T13:34:49;103141.69;;;8.33;41.39
58243;BME280;50118;53.232;8.252;2023-04-03T13:37:23;103127.09;;;8.79;40.23
58243;BME280;50118;53.232;8.252;2023-04-03T13:42:30;103124.81;;;8.72;41.91
58243;BME280;50118;53.232;8.252;2023-04-03T13:45:08;103135.69;;;7.90;43.62
58243;BME280;50118;53.232;8.252;2023-04-03T13:47:42;103127.25;;;7.40;45.71
58243;BME280;50118;53.232;8.252;2023-04-03T13:52:52;103125.47;;;7.20;43.28
58243;BME280;50118;53.232;8.252;2023-04-03T13:55:23;103134.13;;;7.24;44.51
58243;BME280;50118;53.232;8.252;2023-04-03T14:00:31;103123.03;;;7.76;44.44
58243;BME280;50118;53.232;8.252;2023-04-03T14:02:57;103118.31;;;7.82;43.22
58243;BME280;50118;53.232;8.252;2023-04-03T14:05:24;103112.97;;;7.63;44.46
58243;BME280;50118;53.232;8.252;2023-04-03T14:07:51;103112.63;;;7.92;48.56
58243;BME280;50118;53.232;8.252;2023-04-03T14:10:16;103106.88;;;8.20;48.19
58243;BME280;50118;53.232;8.252;2023-04-03T14:12:42;103109.47;;;7.63;48.06
58243;BME280;50118;53.232;8.252;2023-04-03T14:15:20;103120.47;;;7.33;48.68
58243;BME280;50118;53.232;8.252;2023-04-03T14:17:46;103111.00;;;7.27;49.73
58243;BME280;50118;53.232;8.252;2023-04-03T14:20:20;103115.69;;;7.00;51.67
58243;BME280;50118;53.232;8.252;2023-04-03T14:22:47;103119.09;;;6.82;50.02
58243;BME280;50118;53.232;8.252;2023-04-03T14:25:14;103115.53;;;6.83;50.45
58243;BME280;50118;53.232;8.252;2023-04-03T14:27:42;103117.00;;;6.90;50.43
58243;BME280;50118;53.232;8.252;2023-04-03T14:30:14;103112.06;;;6.81;52.01
58243;BME280;50118;53.232;8.252;2023-04-03T14:32:41;103111.69;;;6.90;52.31
58243;BME280;50118;53.232;8.252;2023-04-03T14:35:06;103116.25;;;6.64;51.99
58243;BME280;50118;53.232;8.252;2023-04-03T14:37:32;103107.03;;;6.75;54.22
58243;BME280;50118;53.232;8.252;2023-04-03T14:40:00;103116.72;;;6.96;53.67
58243;BME280;50118;53.232;8.252;2023-04-03T14:42:28;103109.72;;;6.95;53.42
58243;BME280;50118;53.232;8.252;2023-04-03T14:44:56;103105.41;;;6.70;52.99
58243;BME280;50118;53.232;8.252;2023-04-03T14:47:24;103106.53;;;6.65;53.51
58243;BME280;50118;53.232;8.252;2023-04-03T14:49:51;103103.59;;;6.72;54.33